Norway, Kansas
Current Conditions -  °F | °C
As of 6:55 PM on Wednesday 22 Oct 2014 (Local Time) from KCNK Reporting Station
Light Rain Light Rain  
Wind Chill: 17°   Ceiling: 10000
Heat Index: 17°   Visibility: 8mi
Dew Point: 15°   Wind: 10mph
Humidity: 87%   Direction: 190°S
Pressure: 30.02"   Gusts: NA
Location:  39.7°N, 97.77°W
Report Text: KCNK 222355Z AUTO 19009KT 8SM -RA OVC100 17/15 A3002 RMK AO2 SLP160 P0003 6//// T01720150 10256 20172 53012
Loading
Personal Weather Stations






























Interactive Weather Map
Tropical Storm Tracking
New forecast layout! Learn more

10-Day Weather Forecast

Advertisements
Track Severe Weather on mobile